Flugplatz Holzdorf Airport

Bericht für ETSH

vom 23.02. um 22:20 UTC

Wind 14 kt aus 290°

Sichtweite 10 km oder mehr

aufgelockert bewölkt in 2300 ft

aufgelockert bewölkt in 3500 ft

Temperatur 5.0°C

Taupunkt 1.0°C

Luftfeuchtigkeit 75%

Luftdruck 1013 hPa

ETSH 232220Z 29014KT 9999 SCT023 SCT035 05/01 Q1013 BLU+
Keine Prognose (TAF) verfügbar.
Impressum